Estación Meteorológica Peña el Pijo (Robertgarden) [ 09/24/17 17:49:13 CEST ]

Fecha Hora Presion(HPa) Temp (°C) Humedad % Rocio (°C) Viento ( m/s) Direccion Lluvia 1Hora(mm) Lluvia 24H(mm) LLuvia Total(mm)
2017-Sep-17 01:01:44 1010.500 8.8 49 -1.4         1457.65
2017-Sep-17 02:01:47 1010.300 7.8 53 -1.2         1457.65
2017-Sep-17 03:02:05 1010.100 6.9 57 -1.1         1457.65
2017-Sep-17 04:01:58 1010.000 6.3 61 -0.7         1457.65
2017-Sep-17 05:02:06 1010.200 5.4 65 -0.7         1457.65
2017-Sep-17 06:02:23 1010.100 4.9 68 -0.5         1457.65
2017-Sep-17 07:01:39 1010.500 4.6 71 -0.2         1457.65
2017-Sep-17 08:01:42 1010.900 4.4 72 -0.2         1457.65
2017-Sep-17 09:01:54 1011.400 6.5 76 2.6         1457.65
2017-Sep-17 10:01:50 1011.500 16.2 53 6.8         1457.65
2017-Sep-17 11:01:45 1011.500 21.5 39 6.9         1457.65
2017-Sep-17 12:01:49 1011.300 25.3 28 5.4         1457.65
2017-Sep-17 13:01:53 1011.000 26.2 27 5.5         1457.65
2017-Sep-17 14:01:43 1010.800 26.8 24 4.3         1457.65
2017-Sep-17 15:01:38 1009.800 27.9 22 4.1         1457.65
2017-Sep-17 16:01:20 1009.300 29.6 19 3.3         1457.65
2017-Sep-17 17:01:45 1009.300 28.4 20 3.3         1457.65
2017-Sep-17 18:01:41 1009.500 27.6 17 -0.1         1457.65
2017-Sep-17 19:01:44 1009.600 24.6 20 0.2         1457.65
2017-Sep-17 20:01:46 1010.000 21.2 22 -1.5         1457.65
2017-Sep-17 21:01:52 1010.600 16.5 33 0.1         1457.65
2017-Sep-17 22:01:48 1011.500 13.4 41 0.4         1457.65
2017-Sep-17 23:01:50 1011.900 12.1 46 0.8         1457.65

Temperatura Máxima:29°    Temperatura Mínima:
Presión Máxima:1011.900 Hpa    Presión Mínima:1009.300 Hpa


Volver